Time;durP1;ratioP1;P1;durP2;ratioP2;P2;SDS_P1;SDS_P2;PMS_P1;PMS_P2;Temp;Humidity;BMP_temperature;BMP_pressure;BME280_temperature;BME280_humidity;BME280_pressure;Samples;Min_cycle;Max_cycle;Signal;HPM_P1;HPM_P2
2024/04/15 00:00:36;;;;;;;10.13;2.40;;;;;;;;;;5488051;26;20625;-82
2024/04/15 00:03:05;;;;;;;12.37;2.47;;;;;;;;;;5489492;26;20814;-82
2024/04/15 00:05:36;;;;;;;12.07;3.17;;;;;;;;;;5489085;26;20699;-82
2024/04/15 00:08:02;;;;;;;11.13;2.87;;;;;;;;;;5488689;26;20231;-83
2024/04/15 00:10:31;;;;;;;9.27;2.90;;;;;;;;;;5488496;26;20729;-83
2024/04/15 00:12:58;;;;;;;12.67;2.60;;;;;;;;;;5488602;26;20608;-82
2024/04/15 00:15:27;;;;;;;13.17;2.47;;;;;;;;;;5488394;26;20721;-82
2024/04/15 00:17:54;;;;;;;11.17;2.30;;;;;;;;;;5488833;26;20223;-81
2024/04/15 00:20:26;;;;;;;6.57;1.93;;;;;;;;;;5487593;26;20254;-82
2024/04/15 00:22:52;;;;;;;12.17;2.27;;;;;;;;;;5488521;26;20227;-82
2024/04/15 00:25:21;;;;;;;9.63;2.00;;;;;;;;;;5488888;26;20267;-81
2024/04/15 00:27:47;;;;;;;8.50;1.97;;;;;;;;;;5489027;26;20219;-82
2024/04/15 00:30:16;;;;;;;9.57;2.63;;;;;;;;;;5488443;26;20823;-80
2024/04/15 00:32:43;;;;;;;12.73;2.00;;;;;;;;;;5489081;26;20258;-82
2024/04/15 00:35:11;;;;;;;9.07;2.00;;;;;;;;;;5489159;26;20279;-82
2024/04/15 00:37:40;;;;;;;10.83;1.97;;;;;;;;;;5489099;26;20223;-81
2024/04/15 00:40:10;;;;;;;6.97;1.77;;;;;;;;;;5488583;26;20735;-82
2024/04/15 00:42:36;;;;;;;8.40;2.30;;;;;;;;;;5488420;26;20603;-82
2024/04/15 00:45:05;;;;;;;10.03;1.80;;;;;;;;;;5488280;26;20288;-82
2024/04/15 00:47:32;;;;;;;11.43;2.20;;;;;;;;;;5488431;26;20318;-82
2024/04/15 00:50:00;;;;;;;11.33;2.10;;;;;;;;;;5488148;26;20587;-82
2024/04/15 00:52:27;;;;;;;11.80;2.10;;;;;;;;;;5488583;26;20262;-82
2024/04/15 00:54:59;;;;;;;8.53;1.70;;;;;;;;;;5489061;26;20274;-82
2024/04/15 00:57:25;;;;;;;10.73;2.10;;;;;;;;;;5488055;26;20257;-81
2024/04/15 00:59:54;;;;;;;11.80;2.10;;;;;;;;;;5488216;26;20299;-81
2024/04/15 01:02:20;;;;;;;9.33;1.70;;;;;;;;;;5488208;26;20336;-82
2024/04/15 01:04:49;;;;;;;10.27;2.47;;;;;;;;;;5488536;26;20231;-81
2024/04/15 01:07:16;;;;;;;7.30;2.10;;;;;;;;;;5488397;26;20262;-82
2024/04/15 01:09:44;;;;;;;11.53;1.90;;;;;;;;;;5488119;26;20239;-82
2024/04/15 01:12:13;;;;;;;9.93;2.00;;;;;;;;;;5488004;26;20245;-82
2024/04/15 01:14:42;;;;;;;11.77;2.40;;;;;;;;;;5487617;26;20280;-82
2024/04/15 01:17:08;;;;;;;8.37;1.90;;;;;;;;;;5488391;26;20770;-82
2024/04/15 01:19:37;;;;;;;12.20;2.37;;;;;;;;;;5488120;26;20302;-82
2024/04/15 01:22:04;;;;;;;10.43;2.63;;;;;;;;;;5487567;26;20258;-82
2024/04/15 01:24:36;;;;;;;11.83;2.73;;;;;;;;;;5487997;26;20231;-81
2024/04/15 01:27:02;;;;;;;13.03;2.10;;;;;;;;;;5487798;26;20573;-83
2024/04/15 01:29:31;;;;;;;10.27;2.07;;;;;;;;;;5487489;26;20231;-82
2024/04/15 01:31:57;;;;;;;10.37;1.90;;;;;;;;;;5488032;26;20253;-82
2024/04/15 01:34:26;;;;;;;12.27;2.33;;;;;;;;;;5488719;26;20290;-82
2024/04/15 01:36:52;;;;;;;5.63;1.77;;;;;;;;;;5487551;26;20246;-82
2024/04/15 01:39:21;;;;;;;10.20;2.20;;;;;;;;;;5487501;26;20273;-81
2024/04/15 01:41:50;;;;;;;9.30;2.30;;;;;;;;;;5487653;26;20751;-82
2024/04/15 01:44:20;;;;;;;11.67;2.23;;;;;;;;;;5487800;26;20282;-82
2024/04/15 01:46:46;;;;;;;11.87;2.67;;;;;;;;;;5487901;26;20227;-82
2024/04/15 01:49:15;;;;;;;14.37;2.53;;;;;;;;;;5487360;26;20571;-81
2024/04/15 01:51:41;;;;;;;12.17;2.60;;;;;;;;;;5487458;26;20215;-82
2024/04/15 01:54:10;;;;;;;11.87;2.37;;;;;;;;;;5487738;26;20234;-81
2024/04/15 01:56:36;;;;;;;13.70;2.37;;;;;;;;;;5487700;26;20262;-83
2024/04/15 01:59:09;;;;;;;11.23;2.80;;;;;;;;;;5487380;26;20802;-82
2024/04/15 02:01:36;;;;;;;7.83;2.20;;;;;;;;;;5487346;26;20219;-82
2024/04/15 02:04:05;;;;;;;17.00;2.80;;;;;;;;;;5486505;26;20235;-82
2024/04/15 02:06:31;;;;;;;14.67;2.63;;;;;;;;;;5486850;26;20274;-82
2024/04/15 02:09:00;;;;;;;12.40;2.50;;;;;;;;;;5487041;26;20314;-82
2024/04/15 02:11:26;;;;;;;11.53;2.67;;;;;;;;;;5487173;26;20560;-82
2024/04/15 02:13:55;;;;;;;12.80;3.23;;;;;;;;;;5472790;26;20267;-82
2024/04/15 02:16:23;;;;;;;11.87;2.67;;;;;;;;;;5450427;26;20558;-82
2024/04/15 02:18:52;;;;;;;9.30;2.60;;;;;;;;;;5450818;26;20344;-83
2024/04/15 02:21:18;;;;;;;11.77;3.00;;;;;;;;;;5450958;26;20224;-83
2024/04/15 02:23:47;;;;;;;12.23;2.77;;;;;;;;;;5453875;26;20274;-82
2024/04/15 02:26:14;;;;;;;11.07;2.97;;;;;;;;;;5453781;26;20267;-83
2024/04/15 02:28:42;;;;;;;9.80;2.50;;;;;;;;;;5454364;26;20227;-81
2024/04/15 02:31:09;;;;;;;11.37;2.53;;;;;;;;;;5454721;26;20228;-82
2024/04/15 02:33:40;;;;;;;8.80;2.53;;;;;;;;;;5453892;26;20340;-82
2024/04/15 02:36:06;;;;;;;11.40;2.50;;;;;;;;;;5454005;26;20255;-83
2024/04/15 02:38:35;;;;;;;13.63;2.57;;;;;;;;;;5454448;26;20570;-82
2024/04/15 02:41:01;;;;;;;12.73;2.80;;;;;;;;;;5453498;26;20486;-82
2024/04/15 02:43:30;;;;;;;12.23;2.47;;;;;;;;;;5470314;26;20300;-82
2024/04/15 02:45:57;;;;;;;10.17;2.80;;;;;;;;;;5453968;26;20274;-83
2024/04/15 02:48:25;;;;;;;11.00;2.93;;;;;;;;;;5454301;26;20279;-82
2024/04/15 02:50:54;;;;;;;14.30;3.00;;;;;;;;;;5454380;26;20262;-82
2024/04/15 02:53:23;;;;;;;12.80;3.33;;;;;;;;;;5453848;26;20296;-82
2024/04/15 02:55:51;;;;;;;13.40;3.10;;;;;;;;;;5453625;26;20266;-81
2024/04/15 02:58:20;;;;;;;11.93;3.30;;;;;;;;;;5453898;26;20767;-84
2024/04/15 03:00:46;;;;;;;7.90;2.97;;;;;;;;;;5453590;26;20227;-83
2024/04/15 03:03:15;;;;;;;9.73;2.90;;;;;;;;;;5453718;26;20228;-82
2024/04/15 03:05:43;;;;;;;13.30;3.80;;;;;;;;;;5453598;26;20226;-84
2024/04/15 03:08:15;;;;;;;15.53;3.33;;;;;;;;;;5453947;26;20263;-83
2024/04/15 03:10:41;;;;;;;11.70;3.20;;;;;;;;;;5453160;26;20224;-83
2024/04/15 03:13:10;;;;;;;9.80;3.30;;;;;;;;;;5456830;26;20270;-83
2024/04/15 03:15:36;;;;;;;10.90;3.33;;;;;;;;;;5490150;26;20580;-83
2024/04/15 03:18:06;;;;;;;15.27;3.23;;;;;;;;;;5489962;26;20230;-83
2024/04/15 03:20:32;;;;;;;12.60;3.33;;;;;;;;;;5489991;26;20223;-82
2024/04/15 03:23:01;;;;;;;10.63;3.40;;;;;;;;;;5490255;26;20686;-83
2024/04/15 03:25:30;;;;;;;13.97;3.17;;;;;;;;;;5489989;26;20274;-83
2024/04/15 03:27:58;;;;;;;12.87;3.37;;;;;;;;;;5489866;26;20243;-83
2024/04/15 03:30:25;;;;;;;12.77;3.70;;;;;;;;;;5489695;26;20223;-83
2024/04/15 03:32:53;;;;;;;11.20;3.63;;;;;;;;;;5489883;26;20273;-83
2024/04/15 03:35:20;;;;;;;12.00;3.83;;;;;;;;;;5489591;26;20226;-82
2024/04/15 03:37:48;;;;;;;14.97;3.60;;;;;;;;;;5489930;26;20679;-83
2024/04/15 03:40:15;;;;;;;11.17;4.40;;;;;;;;;;5489745;26;20278;-83
2024/04/15 03:42:46;;;;;;;14.47;4.00;;;;;;;;;;5489844;26;20616;-82
2024/04/15 03:45:12;;;;;;;13.13;4.30;;;;;;;;;;5489154;26;20261;-83
2024/04/15 03:47:41;;;;;;;13.53;3.93;;;;;;;;;;5489588;26;20762;-82
2024/04/15 03:50:10;;;;;;;12.27;3.60;;;;;;;;;;5489024;26;20228;-83
2024/04/15 03:52:36;;;;;;;10.33;4.77;;;;;;;;;;5488837;26;20263;-83
2024/04/15 03:55:06;;;;;;;17.47;5.00;;;;;;;;;;5489431;26;20223;-82
2024/04/15 03:57:32;;;;;;;14.70;4.70;;;;;;;;;;5489243;26;20762;-82
2024/04/15 04:00:03;;;;;;;14.47;5.57;;;;;;;;;;5489608;26;20226;-83
2024/04/15 04:02:30;;;;;;;14.53;4.37;;;;;;;;;;5489410;26;20231;-82
2024/04/15 04:04:58;;;;;;;11.90;4.03;;;;;;;;;;5489390;26;20239;-84
2024/04/15 04:07:25;;;;;;;17.97;4.67;;;;;;;;;;5488578;26;20644;-83
2024/04/15 04:09:53;;;;;;;16.70;4.27;;;;;;;;;;5488793;26;20298;-83
2024/04/15 04:12:20;;;;;;;16.83;4.17;;;;;;;;;;5489163;26;20230;-83
2024/04/15 04:14:49;;;;;;;19.37;4.43;;;;;;;;;;5489175;26;20239;-82
2024/04/15 04:17:18;;;;;;;14.87;4.17;;;;;;;;;;5488915;26;20273;-82
2024/04/15 04:19:47;;;;;;;11.87;3.77;;;;;;;;;;5489313;26;20234;-83
2024/04/15 04:22:13;;;;;;;10.93;3.53;;;;;;;;;;5489209;26;20222;-83
2024/04/15 04:24:42;;;;;;;14.80;4.20;;;;;;;;;;5489154;26;20226;-83
2024/04/15 04:27:08;;;;;;;11.23;4.07;;;;;;;;;;5489153;26;20262;-83
2024/04/15 04:29:37;;;;;;;16.37;3.80;;;;;;;;;;5488775;26;20272;-82
2024/04/15 04:32:04;;;;;;;13.97;4.30;;;;;;;;;;5489247;26;20270;-83
2024/04/15 04:34:37;;;;;;;12.33;4.23;;;;;;;;;;5489085;26;20222;-81
2024/04/15 04:37:03;;;;;;;13.10;3.60;;;;;;;;;;5488256;26;20227;-83
2024/04/15 04:39:32;;;;;;;15.03;4.53;;;;;;;;;;5473350;26;20236;-83
2024/04/15 04:41:58;;;;;;;10.37;3.63;;;;;;;;;;5475897;26;20220;-83
2024/04/15 04:44:28;;;;;;;9.50;3.70;;;;;;;;;;5471179;26;20664;-82
2024/04/15 04:46:54;;;;;;;9.97;3.97;;;;;;;;;;5488196;26;20222;-82
2024/04/15 04:49:23;;;;;;;12.57;3.73;;;;;;;;;;5488817;26;20276;-82
2024/04/15 04:51:52;;;;;;;11.87;4.30;;;;;;;;;;5488313;26;20226;-82
2024/04/15 04:54:21;;;;;;;9.70;3.50;;;;;;;;;;5488410;26;20595;-82
2024/04/15 04:56:47;;;;;;;12.07;3.70;;;;;;;;;;5488711;26;20219;-83
2024/04/15 04:59:16;;;;;;;10.47;3.63;;;;;;;;;;5488726;26;20294;-83
2024/04/15 05:01:43;;;;;;;11.63;3.80;;;;;;;;;;5488610;26;20712;-83
2024/04/15 05:04:11;;;;;;;11.53;4.07;;;;;;;;;;5488307;26;20282;-83
2024/04/15 05:06:38;;;;;;;14.33;4.13;;;;;;;;;;5487321;26;20254;-85
2024/04/15 05:09:09;;;;;;;14.80;4.00;;;;;;;;;;5487626;26;20802;-81
2024/04/15 05:11:35;;;;;;;14.10;4.10;;;;;;;;;;5488807;26;20278;-81
2024/04/15 05:14:04;;;;;;;11.30;3.80;;;;;;;;;;5471070;26;20285;-83
2024/04/15 05:16:30;;;;;;;12.93;3.57;;;;;;;;;;5452210;26;20278;-82
2024/04/15 05:18:59;;;;;;;12.80;3.50;;;;;;;;;;5451571;26;20271;-82
2024/04/15 05:21:25;;;;;;;11.63;3.70;;;;;;;;;;5452115;26;20569;-82
2024/04/15 05:23:54;;;;;;;7.07;3.23;;;;;;;;;;5450851;26;20220;-82
2024/04/15 05:26:23;;;;;;;10.57;3.37;;;;;;;;;;5451438;26;20228;-83
2024/04/15 05:28:52;;;;;;;9.03;3.40;;;;;;;;;;5451603;26;20610;-80
2024/04/15 05:31:18;;;;;;;8.97;3.43;;;;;;;;;;5451613;26;20215;-81
2024/04/15 05:33:47;;;;;;;14.60;3.73;;;;;;;;;;5451873;26;20771;-81
2024/04/15 05:36:13;;;;;;;9.87;3.13;;;;;;;;;;5451238;26;20226;-82
2024/04/15 05:38:42;;;;;;;12.67;3.50;;;;;;;;;;5457926;26;20243;-81
2024/04/15 05:41:08;;;;;;;9.83;3.83;;;;;;;;;;5482459;26;20292;-81
2024/04/15 05:43:40;;;;;;;10.67;3.00;;;;;;;;;;5478855;26;20235;-81
2024/04/15 05:46:06;;;;;;;6.80;3.17;;;;;;;;;;5505207;26;20852;-83
2024/04/15 05:48:35;;;;;;;10.70;3.20;;;;;;;;;;5499370;25;20250;-83
2024/04/15 05:51:01;;;;;;;8.17;3.13;;;;;;;;;;5475768;26;20728;-82
2024/04/15 05:53:30;;;;;;;9.03;2.80;;;;;;;;;;5444901;26;20283;-82
2024/04/15 05:55:57;;;;;;;12.90;3.57;;;;;;;;;;5473031;26;20270;-82
2024/04/15 05:58:26;;;;;;;10.30;3.53;;;;;;;;;;5485220;26;20242;-83
2024/04/15 06:00:55;;;;;;;13.37;4.47;;;;;;;;;;5486636;26;20277;-83
2024/04/15 06:03:24;;;;;;;9.47;4.40;;;;;;;;;;5486674;26;20234;-82
2024/04/15 06:05:50;;;;;;;10.90;4.30;;;;;;;;;;5486987;26;20692;-81
2024/04/15 06:08:19;;;;;;;12.00;5.17;;;;;;;;;;5486957;26;20269;-82
2024/04/15 06:10:47;;;;;;;13.07;4.40;;;;;;;;;;5486945;26;20266;-83
2024/04/15 06:13:19;;;;;;;14.47;4.53;;;;;;;;;;5486514;26;20227;-82
2024/04/15 06:15:45;;;;;;;11.03;4.47;;;;;;;;;;5486833;26;20345;-81
2024/04/15 06:18:17;;;;;;;11.63;4.63;;;;;;;;;;5485554;26;20223;-82
2024/04/15 06:20:43;;;;;;;11.10;3.90;;;;;;;;;;5486716;26;20223;-83
2024/04/15 06:23:12;;;;;;;9.23;3.90;;;;;;;;;;5486774;26;20312;-82
2024/04/15 06:25:39;;;;;;;12.70;3.60;;;;;;;;;;5487011;26;20224;-82
2024/04/15 06:28:08;;;;;;;10.43;3.60;;;;;;;;;;5485706;26;20231;-82
2024/04/15 06:30:34;;;;;;;6.77;3.30;;;;;;;;;;5486396;26;20223;-83
2024/04/15 06:33:03;;;;;;;8.93;3.20;;;;;;;;;;5486340;26;20282;-81
2024/04/15 06:35:32;;;;;;;8.87;2.93;;;;;;;;;;5483007;26;20254;-83
2024/04/15 06:38:01;;;;;;;6.23;3.00;;;;;;;;;;5462262;26;20231;-83
2024/04/15 06:40:29;;;;;;;11.53;2.67;;;;;;;;;;5486292;26;20277;-81
2024/04/15 06:42:57;;;;;;;7.80;2.17;;;;;;;;;;5486068;26;20728;-84
2024/04/15 06:45:24;;;;;;;6.33;1.73;;;;;;;;;;5486075;26;20224;-82
2024/04/15 06:47:53;;;;;;;5.90;2.10;;;;;;;;;;5485600;26;20269;-82
2024/04/15 06:50:19;;;;;;;7.57;1.97;;;;;;;;;;5485709;26;20268;-82
2024/04/15 06:52:51;;;;;;;9.93;2.13;;;;;;;;;;5486201;26;20223;-81
2024/04/15 06:55:17;;;;;;;6.20;1.83;;;;;;;;;;5485686;26;20273;-84
2024/04/15 06:57:46;;;;;;;7.00;2.23;;;;;;;;;;5485858;26;20273;-84
2024/04/15 07:00:13;;;;;;;4.70;2.07;;;;;;;;;;5486181;26;20227;-83
2024/04/15 07:02:42;;;;;;;6.28;2.50;;;;;;;;;;5485297;26;20727;-84
2024/04/15 07:05:08;;;;;;;6.25;2.33;;;;;;;;;;5485765;26;20266;-82
2024/04/15 07:07:37;;;;;;;5.22;2.15;;;;;;;;;;5486214;26;20339;-84
2024/04/15 07:10:06;;;;;;;5.28;2.30;;;;;;;;;;5489161;26;20266;-83
2024/04/15 07:12:35;;;;;;;7.07;2.50;;;;;;;;;;5489294;26;20257;-82
2024/04/15 07:15:01;;;;;;;5.75;2.20;;;;;;;;;;5457519;26;20275;-83
2024/04/15 07:17:30;;;;;;;6.80;2.30;;;;;;;;;;5484032;26;20238;-83
2024/04/15 07:19:57;;;;;;;4.45;1.92;;;;;;;;;;5489622;26;20334;-83
2024/04/15 07:22:25;;;;;;;7.28;2.10;;;;;;;;;;5489177;26;20558;-83
2024/04/15 07:24:52;;;;;;;5.20;2.13;;;;;;;;;;5489161;26;20261;-83
2024/04/15 07:27:23;;;;;;;5.63;2.40;;;;;;;;;;5489313;26;20235;-83
2024/04/15 07:29:49;;;;;;;8.45;2.30;;;;;;;;;;5489509;26;20227;-82
2024/04/15 07:32:18;;;;;;;6.32;2.00;;;;;;;;;;5489030;26;20235;-83
2024/04/15 07:34:44;;;;;;;4.32;1.80;;;;;;;;;;5471828;26;20278;-82
2024/04/15 07:37:13;;;;;;;4.72;1.75;;;;;;;;;;5489145;26;20291;-83
2024/04/15 07:39:40;;;;;;;7.28;2.00;;;;;;;;;;5489784;26;20238;-83
2024/04/15 07:42:09;;;;;;;5.63;1.90;;;;;;;;;;5488949;26;20719;-83
2024/04/15 07:44:38;;;;;;;6.00;1.95;;;;;;;;;;5488508;26;20223;-83
2024/04/15 07:47:07;;;;;;;5.05;1.98;;;;;;;;;;5489849;26;20268;-83
2024/04/15 07:49:35;;;;;;;5.28;1.75;;;;;;;;;;5479665;26;20224;-83
2024/04/15 07:52:04;;;;;;;4.47;1.75;;;;;;;;;;5488261;26;20304;-83
2024/04/15 07:54:30;;;;;;;5.85;1.73;;;;;;;;;;5488808;26;20769;-81
2024/04/15 07:56:59;;;;;;;3.60;1.50;;;;;;;;;;5488669;26;20303;-83
2024/04/15 07:59:25;;;;;;;6.00;1.95;;;;;;;;;;5488650;26;20269;-83
2024/04/15 08:01:57;;;;;;;4.47;1.55;;;;;;;;;;5489384;26;20559;-82
2024/04/15 08:04:23;;;;;;;4.18;1.42;;;;;;;;;;5488706;26;20219;-82
2024/04/15 08:06:52;;;;;;;6.95;1.40;;;;;;;;;;5488256;26;20735;-82
2024/04/15 08:09:18;;;;;;;5.43;1.48;;;;;;;;;;5489537;26;20223;-83
2024/04/15 08:11:47;;;;;;;7.47;1.40;;;;;;;;;;5489044;26;20716;-84
2024/04/15 08:14:13;;;;;;;4.13;1.58;;;;;;;;;;5488303;26;20277;-84
2024/04/15 08:16:42;;;;;;;8.50;1.40;;;;;;;;;;5488408;26;20239;-83
2024/04/15 08:19:11;;;;;;;7.60;1.90;;;;;;;;;;5489534;26;20222;-83
2024/04/15 08:21:40;;;;;;;6.70;2.30;;;;;;;;;;5486788;26;20239;-84
2024/04/15 08:24:06;;;;;;;8.48;2.65;;;;;;;;;;5488497;26;20220;-83
2024/04/15 08:26:35;;;;;;;4.75;1.50;;;;;;;;;;5488247;26;20634;-83
2024/04/15 08:29:03;;;;;;;5.20;1.55;;;;;;;;;;5488878;26;20223;-84
2024/04/15 08:31:32;;;;;;;4.63;1.52;;;;;;;;;;5489311;26;20267;-84
2024/04/15 08:33:59;;;;;;;5.82;1.40;;;;;;;;;;5488806;26;20227;-83
2024/04/15 08:36:30;;;;;;;4.97;1.60;;;;;;;;;;5487943;26;20226;-83
2024/04/15 08:38:56;;;;;;;4.63;1.30;;;;;;;;;;5488812;26;20224;-84
2024/04/15 08:41:30;;;;;;;5.57;1.60;;;;;;;;;;5488349;26;20767;-82
2024/04/15 08:44:03;;;;;;;5.17;1.50;;;;;;;;;;5488230;26;20731;-82
2024/04/15 08:46:32;;;;;;;5.93;1.50;;;;;;;;;;5488261;26;20239;-84
2024/04/15 08:48:59;;;;;;;5.63;1.10;;;;;;;;;;5488515;26;20222;-83
2024/04/15 08:51:30;;;;;;;5.20;1.30;;;;;;;;;;5487412;26;20326;-83
2024/04/15 08:53:56;;;;;;;6.10;1.10;;;;;;;;;;5488416;26;20223;-83
2024/04/15 08:56:26;;;;;;;4.57;1.00;;;;;;;;;;5487120;26;20277;-82
2024/04/15 08:58:56;;;;;;;5.57;1.00;;;;;;;;;;5487119;26;20220;-84
2024/04/15 09:01:25;;;;;;;4.20;1.05;;;;;;;;;;5487853;26;20727;-83
2024/04/15 09:03:51;;;;;;;4.88;1.20;;;;;;;;;;5488538;26;20223;-83
2024/04/15 09:06:20;;;;;;;5.07;0.88;;;;;;;;;;5486569;26;20277;-82
2024/04/15 09:08:49;;;;;;;3.42;1.20;;;;;;;;;;5487463;26;20219;-83
2024/04/15 09:11:18;;;;;;;6.53;1.10;;;;;;;;;;5487489;26;20231;-82
2024/04/15 09:13:44;;;;;;;5.10;1.25;;;;;;;;;;5487221;26;20232;-82
2024/04/15 09:16:13;;;;;;;7.35;1.63;;;;;;;;;;5487616;26;20751;-81
2024/04/15 09:18:39;;;;;;;5.10;1.08;;;;;;;;;;5488499;26;20219;-82
2024/04/15 09:21:08;;;;;;;3.78;0.90;;;;;;;;;;5487840;26;20233;-82
2024/04/15 09:23:34;;;;;;;5.03;1.48;;;;;;;;;;5487561;26;20227;-83
2024/04/15 09:26:06;;;;;;;6.82;1.33;;;;;;;;;;5487283;26;20720;-80
2024/04/15 09:28:32;;;;;;;3.55;1.13;;;;;;;;;;5484427;26;20238;-82
2024/04/15 09:31:01;;;;;;;5.78;1.77;;;;;;;;;;5484959;26;20316;-81
2024/04/15 09:33:28;;;;;;;5.22;1.30;;;;;;;;;;5487162;26;20277;-82
2024/04/15 09:35:57;;;;;;;4.18;1.20;;;;;;;;;;5483282;26;20723;-82
2024/04/15 09:38:24;;;;;;;4.57;1.20;;;;;;;;;;5484937;26;20230;-82
2024/04/15 09:40:54;;;;;;;4.93;1.02;;;;;;;;;;5486223;26;20235;-82
2024/04/15 09:43:24;;;;;;;5.07;1.63;;;;;;;;;;5486947;26;20348;-82
2024/04/15 09:45:53;;;;;;;3.38;1.20;;;;;;;;;;5486280;26;20758;-83
2024/04/15 09:48:22;;;;;;;4.70;1.90;;;;;;;;;;5487359;26;20231;-83
2024/04/15 09:50:54;;;;;;;7.93;2.50;;;;;;;;;;5457015;26;20312;-83
2024/04/15 09:53:24;;;;;;;6.33;1.80;;;;;;;;;;5486757;26;20762;-83
2024/04/15 09:55:55;;;;;;;6.57;1.33;;;;;;;;;;5486228;26;20231;-82
2024/04/15 09:58:26;;;;;;;5.00;1.60;;;;;;;;;;5486534;26;20277;-82
2024/04/15 10:00:58;;;;;;;4.50;1.40;;;;;;;;;;5486623;26;20285;-83
2024/04/15 10:03:24;;;;;;;4.37;1.40;;;;;;;;;;5486778;26;20238;-82
2024/04/15 10:05:55;;;;;;;5.13;1.70;;;;;;;;;;5486692;26;20238;-82
2024/04/15 10:08:22;;;;;;;10.07;3.53;;;;;;;;;;5486591;26;20828;-82
2024/04/15 10:10:51;;;;;;;4.80;1.90;;;;;;;;;;5485724;26;20619;-82
2024/04/15 10:13:18;;;;;;;4.83;2.70;;;;;;;;;;5486709;26;20262;-82
2024/04/15 10:15:50;;;;;;;3.83;1.40;;;;;;;;;;5485426;26;20227;-82
2024/04/15 10:18:17;;;;;;;4.40;1.17;;;;;;;;;;5486462;26;20223;-82
2024/04/15 10:20:48;;;;;;;3.73;1.27;;;;;;;;;;5485734;26;20238;-83
2024/04/15 10:23:15;;;;;;;6.77;1.20;;;;;;;;;;5486717;26;20577;-82
2024/04/15 10:25:44;;;;;;;4.07;1.20;;;;;;;;;;5486642;26;20261;-83
2024/04/15 10:28:11;;;;;;;5.57;1.57;;;;;;;;;;5486392;26;20747;-82
2024/04/15 10:30:41;;;;;;;5.17;1.30;;;;;;;;;;5485626;26;20238;-82
2024/04/15 10:33:10;;;;;;;6.47;3.53;;;;;;;;;;5485895;26;20258;-82
2024/04/15 10:35:40;;;;;;;4.80;3.20;;;;;;;;;;5486776;26;20227;-82
2024/04/15 10:38:07;;;;;;;2.70;1.50;;;;;;;;;;5486998;26;20219;-83
2024/04/15 10:40:38;;;;;;;3.90;1.00;;;;;;;;;;5486580;26;20332;-83
2024/04/15 10:43:05;;;;;;;4.67;1.47;;;;;;;;;;5486419;26;20223;-84
2024/04/15 10:45:34;;;;;;;2.23;0.63;;;;;;;;;;5489842;26;20238;-83
2024/04/15 10:48:00;;;;;;;2.00;0.70;;;;;;;;;;5490175;26;20262;-83
2024/04/15 10:50:32;;;;;;;3.30;1.17;;;;;;;;;;5490310;26;20234;-84
2024/04/15 10:52:58;;;;;;;3.80;1.10;;;;;;;;;;5489845;26;20223;-83
2024/04/15 10:55:27;;;;;;;2.63;1.03;;;;;;;;;;5490383;26;20324;-84
2024/04/15 10:57:53;;;;;;;3.97;1.13;;;;;;;;;;5490064;26;20223;-84
2024/04/15 11:00:24;;;;;;;3.63;1.10;;;;;;;;;;5489892;26;20335;-84
2024/04/15 11:02:51;;;;;;;3.40;0.88;;;;;;;;;;5490076;26;20318;-85
2024/04/15 11:05:20;;;;;;;4.05;0.93;;;;;;;;;;5490496;26;20264;-83
2024/04/15 11:07:51;;;;;;;2.10;0.95;;;;;;;;;;5452811;26;20609;-82
2024/04/15 11:10:20;;;;;;;2.92;1.60;;;;;;;;;;5453877;26;20316;-88
2024/04/15 11:12:51;;;;;;;4.07;1.30;;;;;;;;;;5484868;26;20273;-85
2024/04/15 11:15:21;;;;;;;3.92;1.30;;;;;;;;;;5489505;26;20565;-84
2024/04/15 11:17:47;;;;;;;1.80;1.02;;;;;;;;;;5479361;26;20268;-86
2024/04/15 11:20:16;;;;;;;4.93;1.10;;;;;;;;;;5468497;26;20612;-84
2024/04/15 11:22:42;;;;;;;5.97;1.50;;;;;;;;;;5489930;26;20970;-85
2024/04/15 11:25:14;;;;;;;3.57;1.37;;;;;;;;;;5490646;26;20755;-86
2024/04/15 11:27:41;;;;;;;4.00;0.90;;;;;;;;;;5490471;26;20265;-85
2024/04/15 11:30:11;;;;;;;3.43;0.83;;;;;;;;;;5487382;26;20269;-85
2024/04/15 11:32:37;;;;;;;3.20;0.90;;;;;;;;;;5489512;26;20265;-86
2024/04/15 11:35:07;;;;;;;4.23;0.93;;;;;;;;;;5489378;26;20284;-85
2024/04/15 11:37:33;;;;;;;3.40;1.00;;;;;;;;;;5466596;26;20279;-85
2024/04/15 11:40:02;;;;;;;2.77;0.80;;;;;;;;;;5452333;26;20236;-86
2024/04/15 11:42:31;;;;;;;5.50;1.00;;;;;;;;;;5488902;26;20238;-86
2024/04/15 11:45:02;;;;;;;2.83;0.70;;;;;;;;;;5488937;26;20253;-86
2024/04/15 11:47:28;;;;;;;4.17;1.10;;;;;;;;;;5489220;26;20224;-84
2024/04/15 11:50:00;;;;;;;3.30;1.13;;;;;;;;;;5489120;26;20828;-85
2024/04/15 11:52:26;;;;;;;4.27;1.20;;;;;;;;;;5452082;26;20224;-86
2024/04/15 11:54:56;;;;;;;3.10;1.10;;;;;;;;;;5451489;26;20626;-85
2024/04/15 11:57:22;;;;;;;4.40;0.93;;;;;;;;;;5487822;26;20231;-87
2024/04/15 11:59:54;;;;;;;3.08;0.70;;;;;;;;;;5486604;26;20243;-86
2024/04/15 12:02:20;;;;;;;3.33;0.90;;;;;;;;;;5488212;26;20235;-85
2024/04/15 12:04:49;;;;;;;4.47;0.73;;;;;;;;;;5488298;26;20333;-86
2024/04/15 12:07:16;;;;;;;4.53;0.90;;;;;;;;;;5488320;26;20933;-85
2024/04/15 12:09:45;;;;;;;4.53;0.90;;;;;;;;;;5470770;26;20274;-84
2024/04/15 12:12:12;;;;;;;5.38;0.90;;;;;;;;;;5452358;26;20258;-85
2024/04/15 12:14:40;;;;;;;4.55;0.77;;;;;;;;;;5478684;26;20239;-84
2024/04/15 12:17:09;;;;;;;4.93;0.70;;;;;;;;;;5488180;26;20567;-85
2024/04/15 12:19:38;;;;;;;5.17;1.27;;;;;;;;;;5488857;26;20227;-86
2024/04/15 12:22:05;;;;;;;5.00;1.10;;;;;;;;;;5488503;26;20258;-85
2024/04/15 12:24:34;;;;;;;8.10;1.17;;;;;;;;;;5488373;26;20347;-85
2024/04/15 12:27:00;;;;;;;4.83;1.07;;;;;;;;;;5488067;26;20624;-84
2024/04/15 12:29:29;;;;;;;3.13;0.83;;;;;;;;;;5488247;26;20231;-84
2024/04/15 12:31:55;;;;;;;4.30;1.00;;;;;;;;;;5487566;26;20300;-85
2024/04/15 12:34:27;;;;;;;4.03;1.20;;;;;;;;;;5488233;26;20227;-85
2024/04/15 12:36:53;;;;;;;5.47;1.23;;;;;;;;;;5488774;26;20292;-85
2024/04/15 12:39:22;;;;;;;5.47;1.30;;;;;;;;;;5489015;26;20707;-84
2024/04/15 12:41:49;;;;;;;6.28;1.30;;;;;;;;;;5488657;26;20219;-85
2024/04/15 12:44:18;;;;;;;6.07;1.30;;;;;;;;;;5488789;26;20247;-84
2024/04/15 12:46:44;;;;;;;4.90;1.00;;;;;;;;;;5453312;26;20224;-84
2024/04/15 12:49:14;;;;;;;2.53;1.10;;;;;;;;;;5451635;26;20772;-84
2024/04/15 12:51:42;;;;;;;2.97;1.00;;;;;;;;;;5452643;26;20224;-84
2024/04/15 12:54:11;;;;;;;2.47;0.90;;;;;;;;;;5451981;26;20233;-85
2024/04/15 12:56:38;;;;;;;4.22;0.90;;;;;;;;;;5451748;26;20228;-84
2024/04/15 12:59:06;;;;;;;2.97;0.70;;;;;;;;;;5452863;26;20232;-85
2024/04/15 13:01:33;;;;;;;2.65;0.80;;;;;;;;;;5452798;26;20332;-85
2024/04/15 13:04:03;;;;;;;4.10;0.93;;;;;;;;;;5453021;26;20236;-86
2024/04/15 13:06:30;;;;;;;5.35;0.95;;;;;;;;;;5451974;26;20290;-86
2024/04/15 13:09:02;;;;;;;3.53;0.60;;;;;;;;;;5458479;26;20352;-86
2024/04/15 13:11:28;;;;;;;3.47;0.77;;;;;;;;;;5488123;26;20254;-86
2024/04/15 13:13:57;;;;;;;3.05;0.98;;;;;;;;;;5474208;26;20759;-87
2024/04/15 13:16:23;;;;;;;4.05;1.02;;;;;;;;;;5452376;26;20251;-87
2024/04/15 13:18:52;;;;;;;2.88;0.70;;;;;;;;;;5451660;26;20232;-86
2024/04/15 13:21:19;;;;;;;10.73;1.27;;;;;;;;;;5452318;26;20743;-86
2024/04/15 13:23:50;;;;;;;4.38;0.73;;;;;;;;;;5452477;26;20332;-86
2024/04/15 13:26:19;;;;;;;5.95;1.00;;;;;;;;;;5451638;26;20228;-84
2024/04/15 13:28:48;;;;;;;4.32;0.77;;;;;;;;;;5452511;26;20579;-86
2024/04/15 13:31:14;;;;;;;2.28;0.70;;;;;;;;;;5475613;26;20231;-86
2024/04/15 13:33:44;;;;;;;1.95;0.70;;;;;;;;;;5488456;26;20331;-88
2024/04/15 13:36:10;;;;;;;4.38;0.93;;;;;;;;;;5487732;26;20257;-86
2024/04/15 13:38:39;;;;;;;4.45;0.90;;;;;;;;;;5488913;26;20242;-85
2024/04/15 13:41:05;;;;;;;4.07;1.00;;;;;;;;;;5488751;26;20786;-86
2024/04/15 13:43:37;;;;;;;5.15;1.02;;;;;;;;;;5487256;26;20239;-83
2024/04/15 13:46:05;;;;;;;3.30;1.00;;;;;;;;;;5484817;26;20235;-87
2024/04/15 13:48:34;;;;;;;4.10;0.88;;;;;;;;;;5487444;26;20715;-85
2024/04/15 13:51:00;;;;;;;3.30;0.82;;;;;;;;;;5487345;26;20227;-86
2024/04/15 13:53:29;;;;;;;2.70;0.90;;;;;;;;;;5487416;26;20305;-85
2024/04/15 13:55:55;;;;;;;2.00;0.60;;;;;;;;;;5483847;26;20232;-84
2024/04/15 13:58:24;;;;;;;3.15;0.75;;;;;;;;;;5486252;26;20719;-84
2024/04/15 14:00:55;;;;;;;4.57;0.80;;;;;;;;;;5487506;26;20223;-85
2024/04/15 14:03:25;;;;;;;2.00;0.70;;;;;;;;;;5486695;26;20231;-85
2024/04/15 14:05:51;;;;;;;3.92;0.75;;;;;;;;;;5487700;26;20219;-86
2024/04/15 14:08:20;;;;;;;3.55;0.82;;;;;;;;;;5487035;26;20231;-85
2024/04/15 14:10:47;;;;;;;5.28;0.60;;;;;;;;;;5487003;26;20278;-84
2024/04/15 14:13:16;;;;;;;3.28;0.90;;;;;;;;;;5482762;26;20231;-84
2024/04/15 14:15:43;;;;;;;2.72;0.88;;;;;;;;;;5482954;26;21568;-85
2024/04/15 14:18:14;;;;;;;2.97;0.70;;;;;;;;;;5490982;26;20325;-84
2024/04/15 14:20:41;;;;;;;2.60;0.63;;;;;;;;;;5486045;25;20239;-84
2024/04/15 14:23:10;;;;;;;2.97;0.70;;;;;;;;;;5483410;26;20570;-84
2024/04/15 14:25:36;;;;;;;4.45;0.85;;;;;;;;;;5487047;26;20285;-86
2024/04/15 14:28:05;;;;;;;2.20;0.70;;;;;;;;;;5486395;26;20716;-84
2024/04/15 14:30:33;;;;;;;6.80;1.00;;;;;;;;;;5484615;26;20286;-83
2024/04/15 14:33:02;;;;;;;5.37;1.70;;;;;;;;;;5472985;26;20898;-85
2024/04/15 14:35:31;;;;;;;5.53;1.40;;;;;;;;;;5486081;26;20281;-84
2024/04/15 14:38:00;;;;;;;5.23;1.70;;;;;;;;;;5480757;26;20232;-84
2024/04/15 14:40:26;;;;;;;4.23;1.23;;;;;;;;;;5484540;26;20250;-83
2024/04/15 14:42:55;;;;;;;5.80;1.73;;;;;;;;;;5483270;26;20291;-83